createdAt,value
2018-11-21T00:00:24.574Z,60.60
2018-11-21T00:05:28.216Z,60.66
2018-11-21T00:10:31.807Z,60.72
2018-11-21T00:15:35.290Z,60.74
2018-11-21T00:20:38.790Z,60.76
2018-11-21T00:25:42.281Z,60.96
2018-11-21T00:30:45.789Z,60.97
2018-11-21T00:35:49.305Z,60.81
2018-11-21T00:40:52.816Z,60.65
2018-11-21T00:45:56.338Z,60.85
2018-11-21T00:50:59.832Z,60.73
2018-11-21T00:56:03.341Z,61.20
2018-11-21T01:01:06.953Z,61.06
2018-11-21T01:06:10.422Z,61.37
2018-11-21T01:11:13.913Z,61.28
2018-11-21T01:16:17.392Z,61.54
2018-11-21T01:21:20.890Z,61.32
2018-11-21T01:26:24.392Z,61.71
2018-11-21T01:31:28.204Z,61.66
2018-11-21T01:36:31.709Z,62.03
2018-11-21T01:41:35.208Z,61.98
2018-11-21T01:46:38.716Z,62.08
2018-11-21T01:51:42.188Z,62.17
2018-11-21T01:56:45.699Z,62.25
2018-11-21T02:01:49.182Z,62.38
2018-11-21T02:06:52.708Z,62.52
2018-11-21T02:11:56.205Z,62.64
2018-11-21T02:16:59.747Z,62.65
2018-11-21T02:22:03.243Z,62.83
2018-11-21T02:27:06.738Z,62.87
2018-11-21T02:32:10.212Z,63.07
2018-11-21T02:37:13.716Z,63.21
2018-11-21T02:42:17.187Z,63.16
2018-11-21T02:47:20.704Z,63.33
2018-11-21T02:52:24.259Z,63.43
2018-11-21T02:57:37.239Z,63.30
2018-11-21T03:02:40.752Z,63.46
2018-11-21T03:08:09.011Z,63.64
2018-11-21T03:13:12.470Z,63.59
2018-11-21T03:18:15.960Z,63.73
2018-11-21T03:23:19.406Z,63.83
2018-11-21T03:28:22.885Z,63.89
2018-11-21T03:33:26.367Z,63.88
2018-11-21T03:38:29.827Z,63.88
2018-11-21T03:43:33.369Z,64.13
2018-11-21T03:48:36.838Z,64.11
2018-11-21T03:53:40.272Z,64.17
2018-11-21T03:58:43.764Z,64.26
2018-11-21T04:03:47.229Z,64.18
2018-11-21T04:08:50.742Z,64.26
2018-11-21T04:13:54.517Z,64.25
2018-11-21T04:18:58.020Z,64.27
2018-11-21T04:24:01.462Z,64.38
2018-11-21T04:29:04.974Z,64.34
2018-11-21T04:34:08.500Z,64.51
2018-11-21T04:39:12.669Z,64.54
2018-11-21T04:44:16.139Z,64.36
2018-11-21T04:49:19.829Z,64.40
2018-11-21T04:54:23.436Z,64.44
2018-11-21T04:59:27.009Z,64.44
2018-11-21T05:04:30.734Z,64.54
2018-11-21T05:09:34.472Z,64.54
2018-11-21T05:14:38.102Z,64.55
2018-11-21T05:19:41.992Z,64.64
2018-11-21T05:24:45.697Z,64.64
2018-11-21T05:29:49.347Z,64.66
2018-11-21T05:34:53.011Z,64.57
2018-11-21T05:39:56.512Z,64.57
2018-11-21T05:45:00.087Z,64.66
2018-11-21T05:50:03.857Z,64.71
2018-11-21T05:55:07.446Z,64.67
2018-11-21T06:00:13.906Z,64.63
2018-11-21T06:05:16.333Z,64.61
2018-11-21T06:10:19.817Z,64.65
2018-11-21T06:15:23.279Z,64.55
2018-11-21T06:20:26.803Z,64.53
2018-11-21T06:25:30.199Z,64.59
2018-11-21T06:30:33.954Z,64.53
2018-11-21T06:35:37.483Z,64.63
2018-11-21T06:40:40.971Z,64.69
2018-11-21T06:45:44.464Z,64.68
2018-11-21T06:50:49.120Z,64.67
2018-11-21T06:55:52.690Z,64.75
2018-11-21T07:00:56.375Z,64.79
2018-11-21T07:05:59.810Z,64.85
2018-11-21T07:11:03.720Z,64.83
2018-11-21T07:16:07.189Z,64.87
2018-11-21T07:21:11.251Z,64.96
2018-11-21T07:26:14.744Z,64.98
2018-11-21T07:31:18.644Z,64.93
2018-11-21T07:36:22.271Z,64.93
2018-11-21T07:41:25.703Z,64.95
2018-11-21T07:46:29.313Z,65.01
2018-11-21T07:51:33.026Z,64.89
2018-11-21T07:57:18.591Z,64.97
2018-11-21T08:02:26.749Z,65.02
2018-11-21T08:07:44.051Z,65.03
2018-11-21T08:13:05.217Z,52.06
2018-11-21T08:18:26.734Z,49.74
2018-11-21T08:23:40.668Z,49.35
2018-11-21T08:28:44.157Z,48.09
2018-11-21T08:33:47.623Z,48.16
2018-11-21T08:38:51.259Z,48.62
2018-11-21T08:48:58.249Z,50.05
2018-11-21T08:54:01.772Z,50.60
2018-11-21T08:59:05.611Z,51.33
2018-11-21T09:04:09.605Z,51.65
2018-11-21T09:09:13.072Z,51.83
2018-11-21T09:14:16.600Z,52.49
2018-11-21T09:19:20.143Z,53.45
2018-11-21T09:24:23.611Z,53.72
2018-11-21T09:29:27.174Z,53.82
2018-11-21T09:40:13.576Z,55.15
2018-11-21T09:45:18.480Z,55.60
2018-11-21T09:50:23.810Z,55.87
2018-11-21T09:55:27.229Z,56.31
2018-11-21T10:01:07.397Z,57.02
2018-11-21T10:06:16.323Z,57.25
2018-11-21T10:11:20.320Z,57.38
2018-11-21T10:16:23.824Z,57.30
2018-11-21T10:21:29.082Z,57.61
2018-11-21T10:26:32.636Z,58.31
2018-11-21T10:31:36.144Z,58.16
2018-11-21T10:36:39.665Z,58.04
2018-11-21T10:41:43.187Z,58.00
2018-11-21T10:46:46.763Z,58.12
2018-11-21T10:51:50.288Z,58.01
2018-11-21T10:56:54.434Z,58.60
2018-11-21T11:02:29.058Z,59.08
2018-11-21T11:07:50.190Z,59.05
2018-11-21T11:13:24.843Z,58.71
2018-11-21T11:18:38.535Z,58.74
2018-11-21T11:24:05.213Z,58.75
2018-11-21T11:29:19.598Z,59.10
2018-11-21T11:34:40.720Z,58.78
2018-11-21T11:40:02.266Z,59.08
2018-11-21T11:45:24.474Z,58.90
2018-11-21T11:50:52.807Z,59.17
2018-11-21T11:56:30.366Z,59.52
2018-11-21T12:02:13.402Z,59.31
2018-11-21T12:07:33.812Z,59.70
2018-11-21T12:12:54.924Z,59.60
2018-11-21T12:18:16.256Z,59.79
2018-11-21T12:23:27.762Z,59.84
2018-11-21T12:28:56.112Z,59.80
2018-11-21T12:34:17.172Z,59.82
2018-11-21T12:39:52.013Z,59.74
2018-11-21T12:45:17.208Z,59.69
2018-11-21T12:50:48.803Z,59.80
2018-11-21T12:56:01.876Z,59.79
2018-11-21T13:01:36.639Z,59.81
2018-11-21T13:07:11.475Z,59.86
2018-11-21T13:12:40.813Z,59.75
2018-11-21T13:18:09.297Z,60.09
2018-11-21T13:23:33.471Z,59.90
2018-11-21T13:28:54.773Z,59.88
2018-11-21T13:34:22.910Z,59.97
2018-11-21T13:39:38.305Z,59.88
2018-11-21T13:44:59.634Z,59.85
2018-11-21T13:50:22.204Z,59.98
2018-11-21T13:55:25.660Z,59.90
2018-11-21T14:00:29.205Z,59.77
2018-11-21T14:05:32.698Z,59.79
2018-11-21T14:10:36.239Z,60.06
2018-11-21T14:15:39.711Z,59.99
2018-11-21T14:20:43.137Z,59.99
2018-11-21T14:25:46.704Z,60.00
2018-11-21T14:30:50.187Z,60.09
2018-11-21T14:35:56.159Z,60.09
2018-11-21T14:40:57.323Z,60.26
2018-11-21T14:46:01.013Z,59.96
2018-11-21T14:51:04.512Z,60.31
2018-11-21T14:56:08.091Z,60.08
2018-11-21T15:01:11.659Z,60.14
2018-11-21T15:06:15.129Z,60.32
2018-11-21T15:11:18.589Z,60.45
2018-11-21T15:16:22.087Z,60.53
2018-11-21T15:21:25.560Z,60.44
2018-11-21T15:26:29.033Z,60.44
2018-11-21T15:31:32.567Z,60.58
2018-11-21T15:36:36.021Z,60.57
2018-11-21T15:41:40.103Z,60.63
2018-11-21T15:46:45.777Z,60.63
2018-11-21T15:51:47.085Z,60.67
2018-11-21T15:56:50.593Z,60.56
2018-11-21T16:01:54.393Z,60.81
2018-11-21T16:06:58.019Z,60.73
2018-11-21T16:12:01.768Z,60.72
2018-11-21T16:17:05.481Z,60.67
2018-11-21T16:22:08.984Z,60.62
2018-11-21T16:27:12.639Z,60.78
2018-11-21T16:32:16.068Z,60.79
2018-11-21T16:37:19.591Z,60.61
2018-11-21T16:42:23.106Z,60.82
2018-11-21T16:47:26.745Z,60.98
2018-11-21T16:52:30.378Z,60.80
2018-11-21T16:57:33.967Z,60.56
2018-11-21T17:02:37.527Z,60.57
2018-11-21T17:07:41.483Z,60.38
2018-11-21T17:12:45.462Z,59.38
2018-11-21T17:17:49.206Z,58.36
2018-11-21T17:22:53.936Z,58.12
2018-11-21T17:27:57.394Z,57.99
2018-11-21T17:33:00.937Z,57.71
2018-11-21T17:38:04.478Z,57.60
2018-11-21T17:43:08.080Z,57.48
2018-11-21T17:48:11.518Z,57.38
2018-11-21T17:53:15.066Z,57.12
2018-11-21T17:58:18.531Z,56.96
2018-11-21T18:03:22.026Z,57.90
2018-11-21T18:08:25.542Z,58.00
2018-11-21T18:13:29.033Z,57.85
2018-11-21T18:18:32.511Z,57.81
2018-11-21T18:23:35.963Z,57.85
2018-11-21T18:28:39.396Z,58.10
2018-11-21T18:33:42.901Z,57.92
2018-11-21T18:38:46.413Z,58.12
2018-11-21T18:43:49.914Z,58.02
2018-11-21T18:48:53.464Z,57.89
2018-11-21T18:53:56.962Z,57.86
2018-11-21T18:59:12.456Z,57.80
2018-11-21T19:04:15.979Z,57.90
2018-11-21T19:09:19.546Z,58.15
2018-11-21T19:14:23.143Z,58.00
2018-11-21T19:19:26.684Z,57.92
2018-11-21T19:24:30.253Z,58.25
2018-11-21T19:29:33.862Z,58.22
2018-11-21T19:34:37.358Z,58.07
2018-11-21T19:39:40.781Z,58.02
2018-11-21T19:49:47.013Z,57.87
2018-11-21T19:54:50.559Z,58.07
2018-11-21T19:59:54.015Z,58.04
2018-11-21T20:04:57.551Z,58.23
2018-11-21T20:10:01.194Z,58.17
2018-11-21T20:15:04.955Z,58.03
2018-11-21T20:20:11.444Z,57.80
2018-11-21T20:25:16.307Z,57.77
2018-11-21T20:30:21.543Z,57.87
2018-11-21T20:35:26.988Z,57.78
2018-11-21T20:40:32.170Z,57.79
2018-11-21T20:45:35.690Z,57.54
2018-11-21T20:50:39.155Z,57.61
2018-11-21T20:55:43.215Z,57.75
2018-11-21T21:00:46.719Z,57.86
2018-11-21T21:05:50.223Z,57.86
2018-11-21T21:10:53.944Z,57.79
2018-11-21T21:15:57.384Z,58.37
2018-11-21T21:21:00.864Z,58.58
2018-11-21T21:26:04.399Z,58.81
2018-11-21T21:31:07.942Z,58.81
2018-11-21T21:36:11.349Z,59.12
2018-11-21T21:41:14.832Z,59.08
2018-11-21T21:46:18.349Z,59.29
2018-11-21T21:51:21.853Z,59.42
2018-11-21T21:56:25.470Z,59.54
2018-11-21T22:01:28.909Z,59.74
2018-11-21T22:06:32.377Z,59.75
2018-11-21T22:11:35.848Z,59.99
2018-11-21T22:16:39.577Z,59.96
2018-11-21T22:21:43.137Z,59.87
2018-11-21T22:26:46.803Z,60.21
2018-11-21T22:31:50.315Z,60.24
2018-11-21T22:36:53.964Z,60.42
2018-11-21T22:41:57.597Z,60.45
2018-11-21T22:47:01.114Z,60.47
2018-11-21T22:52:04.636Z,60.60
2018-11-21T22:57:08.125Z,60.67
2018-11-21T23:02:12.172Z,60.68
2018-11-21T23:07:15.970Z,60.53
2018-11-21T23:12:19.605Z,60.34
2018-11-21T23:17:23.083Z,60.43
2018-11-21T23:22:32.403Z,60.54
2018-11-21T23:27:30.253Z,60.86
2018-11-21T23:32:33.741Z,60.80
2018-11-21T23:37:37.465Z,61.04
2018-11-21T23:42:42.135Z,61.18
2018-11-21T23:47:46.210Z,61.37
2018-11-21T23:52:49.722Z,61.37
2018-11-21T23:57:53.307Z,61.44
